Time;durP1;ratioP1;P1;durP2;ratioP2;P2;SDS_P1;SDS_P2;PMS_P1;PMS_P2;Temp;Humidity;BMP_temperature;BMP_pressure;BME280_temperature;BME280_humidity;BME280_pressure;Samples;Min_cycle;Max_cycle;Signal;HPM_P1;HPM_P2
2023/01/22 07:39:28;;;;;;;86.63;31.60;;;-1.80;99.90;;;;;;7616832;19;20383;-71
2023/01/22 07:42:01;;;;;;;80.78;31.00;;;-1.90;99.90;;;;;;7614777;19;20120;-71
2023/01/22 07:44:39;;;;;;;78.30;30.08;;;-2.00;99.90;;;;;;7605054;19;20105;-71
2023/01/22 07:47:11;;;;;;;78.38;30.80;;;-1.90;99.90;;;;;;7600242;19;20014;-71
2023/01/22 07:49:44;;;;;;;77.47;30.20;;;-1.90;99.90;;;;;;7631250;19;20022;-71
2023/01/22 07:52:16;;;;;;;78.07;31.10;;;-1.90;99.90;;;;;;7624551;19;20059;-70
2023/01/22 07:54:48;;;;;;;81.72;30.27;;;-1.70;99.90;;;;;;7608854;19;20018;-71
2023/01/22 07:57:20;;;;;;;77.47;30.65;;;-1.70;99.90;;;;;;7585162;19;20018;-72
2023/01/22 07:59:52;;;;;;;79.95;30.67;;;-1.60;99.90;;;;;;7597562;19;20010;-70
2023/01/22 08:02:24;;;;;;;73.10;29.23;;;-1.50;99.90;;;;;;7595599;19;20018;-72
2023/01/22 08:04:57;;;;;;;69.32;27.15;;;-1.40;99.90;;;;;;7617098;19;20105;-71
2023/01/22 08:07:29;;;;;;;68.88;28.23;;;-1.40;99.90;;;;;;7642665;19;20022;-70
2023/01/22 08:10:01;;;;;;;74.18;28.08;;;-1.30;99.90;;;;;;7613837;19;20018;-69
2023/01/22 08:12:37;;;;;;;68.85;28.38;;;-1.20;99.90;;;;;;7615077;19;20002;-70
2023/01/22 08:15:11;;;;;;;66.20;23.95;;;-1.10;99.90;;;;;;7613059;19;20029;-69
2023/01/22 08:17:43;;;;;;;71.05;26.38;;;-1.00;99.90;;;;;;7624392;19;20018;-69
2023/01/22 08:20:16;;;;;;;66.32;27.23;;;-1.10;99.90;;;;;;7602638;19;20033;-69
2023/01/22 08:22:49;;;;;;;62.65;25.88;;;-1.10;99.90;;;;;;7608792;19;20098;-69
2023/01/22 08:25:21;;;;;;;77.43;30.23;;;-0.90;99.90;;;;;;7619832;19;20031;-72
2023/01/22 08:27:53;;;;;;;71.53;27.23;;;-1.00;99.90;;;;;;7627040;19;20006;-70
2023/01/22 08:30:25;;;;;;;71.30;28.08;;;-0.90;99.90;;;;;;7624886;19;20029;-70
2023/01/22 08:32:57;;;;;;;66.90;27.50;;;-0.50;99.90;;;;;;7620196;19;20022;-69
2023/01/22 08:35:30;;;;;;;65.28;26.48;;;-0.90;99.90;;;;;;7633710;19;20018;-71
2023/01/22 08:38:02;;;;;;;59.63;25.70;;;-0.80;99.90;;;;;;7615829;19;20671;-71
2023/01/22 08:40:34;;;;;;;57.58;24.38;;;-1.40;99.90;;;;;;7609514;19;20026;-70
2023/01/22 08:43:08;;;;;;;52.30;22.88;;;-0.80;99.90;;;;;;7623823;19;20022;-70
2023/01/22 08:45:41;;;;;;;54.83;22.75;;;-0.70;99.90;;;;;;7599882;19;20018;-69
2023/01/22 08:48:13;;;;;;;53.55;23.63;;;-0.60;99.90;;;;;;7640348;19;20014;-71
2023/01/22 08:50:46;;;;;;;54.75;25.08;;;-0.40;99.90;;;;;;7595023;19;20022;-68
2023/01/22 08:53:18;;;;;;;57.25;24.17;;;-0.30;99.90;;;;;;7599416;19;20047;-71
2023/01/22 08:55:50;;;;;;;43.83;19.27;;;-0.20;99.90;;;;;;7560250;19;20025;-69
2023/01/22 08:58:24;;;;;;;45.88;21.40;;;-1.30;99.90;;;;;;7581824;19;20827;-70
2023/01/22 09:00:56;;;;;;;;;;;0.10;99.90;;;;;;7594550;19;20512;-69
2023/01/22 09:03:28;;;;;;;54.70;23.08;;;0.30;99.90;;;;;;7595209;19;20571;-70
2023/01/22 09:06:01;;;;;;;52.15;22.67;;;0.20;99.90;;;;;;7599972;19;20049;-69
2023/01/22 09:08:33;;;;;;;45.97;19.55;;;1.30;99.90;;;;;;7602262;19;20110;-70
2023/01/22 09:11:05;;;;;;;47.42;20.55;;;0.30;99.90;;;;;;7590118;19;20022;-69
2023/01/22 09:13:37;;;;;;;49.17;21.35;;;0.30;99.90;;;;;;7581805;19;20018;-69
2023/01/22 09:16:10;;;;;;;44.40;18.80;;;-0.30;99.90;;;;;;7572977;19;20030;-70
2023/01/22 09:18:42;;;;;;;40.47;19.48;;;0.30;99.90;;;;;;7588322;19;20471;-69
2023/01/22 09:21:14;;;;;;;39.35;18.13;;;0.30;99.90;;;;;;7592999;19;20360;-69
2023/01/22 09:23:46;;;;;;;44.40;20.35;;;0.30;99.90;;;;;;7593525;19;20101;-70
2023/01/22 09:26:19;;;;;;;45.05;20.23;;;0.20;99.90;;;;;;7598856;19;20022;-70
2023/01/22 09:28:51;;;;;;;49.35;21.65;;;0.30;99.90;;;;;;7567858;19;20014;-69
2023/01/22 09:31:23;;;;;;;56.70;22.00;;;0.30;99.90;;;;;;7592852;19;20022;-71
2023/01/22 09:33:56;;;;;;;55.40;22.40;;;0.40;99.90;;;;;;7592190;19;20018;-70
2023/01/22 09:36:28;;;;;;;51.85;23.15;;;0.40;99.90;;;;;;7588225;19;20048;-70
2023/01/22 09:39:00;;;;;;;56.60;25.58;;;0.30;99.90;;;;;;7571455;19;20025;-71
2023/01/22 09:41:36;;;;;;;51.05;22.55;;;0.30;99.90;;;;;;7591658;19;20060;-71
2023/01/22 09:44:17;;;;;;;58.65;23.27;;;0.00;99.90;;;;;;7587556;19;20029;-71
2023/01/22 09:46:59;;;;;;;52.72;23.95;;;0.30;99.90;;;;;;7600190;19;20018;-71
2023/01/22 09:49:51;;;;;;;55.05;21.83;;;0.30;99.90;;;;;;7584678;19;20539;-71
2023/01/22 09:52:28;;;;;;;53.65;22.65;;;0.30;99.90;;;;;;7594354;19;20804;-70
2023/01/22 09:55:00;;;;;;;54.75;24.88;;;0.40;99.90;;;;;;7592445;19;20010;-71
2023/01/22 09:57:33;;;;;;;52.75;24.02;;;0.40;99.90;;;;;;7587552;19;20022;-70
2023/01/22 10:00:13;;;;;;;54.88;21.63;;;0.40;99.90;;;;;;7577627;19;20014;-70
2023/01/22 10:03:10;;;;;;;48.25;21.42;;;0.50;99.90;;;;;;7574247;19;20056;-71
2023/01/22 10:05:56;;;;;;;44.22;19.50;;;0.60;99.90;;;;;;7593478;19;20472;-71
2023/01/22 10:08:33;;;;;;;44.05;19.58;;;0.60;99.90;;;;;;7582847;19;20356;-71
2023/01/22 10:11:08;;;;;;;44.05;20.08;;;0.60;99.90;;;;;;7586877;19;20018;-70
2023/01/22 10:13:41;;;;;;;46.03;21.05;;;0.10;99.90;;;;;;7558954;19;20636;-70
2023/01/22 10:16:13;;;;;;;45.70;20.70;;;0.70;99.90;;;;;;7575922;19;20022;-71
2023/01/22 10:18:49;;;;;;;44.30;20.07;;;0.60;99.90;;;;;;7582965;19;20337;-70
2023/01/22 10:21:26;;;;;;;43.83;21.10;;;0.70;99.90;;;;;;7593449;19;20506;-70
2023/01/22 10:23:59;;;;;;;45.83;20.67;;;0.80;99.90;;;;;;7584822;19;21219;-71
2023/01/22 10:26:36;;;;;;;43.87;21.00;;;0.80;99.90;;;;;;7593000;19;20057;-70
2023/01/22 10:29:21;;;;;;;47.55;21.92;;;0.80;99.90;;;;;;7586515;19;20271;-72
2023/01/22 17:31:17;;;;;;;70.57;27.05;;;-1.80;99.90;;;;;;7630185;19;20369;-72
2023/01/22 17:33:54;;;;;;;64.05;28.05;;;-1.90;99.90;;;;;;7635737;19;20085;-69
2023/01/22 17:36:27;;;;;;;68.28;28.90;;;-1.80;99.90;;;;;;7629093;19;20581;-72
2023/01/22 17:39:00;;;;;;;70.03;27.58;;;-1.80;99.90;;;;;;7627960;19;20014;-71
2023/01/22 17:41:33;;;;;;;;;;;-1.80;99.90;;;;;;7635259;19;20044;-73
2023/01/22 17:44:05;;;;;;;55.72;24.60;;;-1.70;99.90;;;;;;7633816;19;19932;-72
2023/01/22 17:46:38;;;;;;;58.50;26.65;;;-1.70;99.90;;;;;;7623912;19;20015;-73
2023/01/22 17:49:10;;;;;;;54.90;24.73;;;-1.70;99.90;;;;;;7616948;19;20456;-72
2023/01/22 17:51:43;;;;;;;62.10;25.85;;;-1.70;99.90;;;;;;7604179;19;21245;-72
2023/01/22 17:54:15;;;;;;;62.35;26.58;;;-1.60;99.90;;;;;;7590293;19;20035;-72
2023/01/22 17:56:51;;;;;;;60.10;25.85;;;-1.60;99.90;;;;;;7582435;19;21665;-72
2023/01/22 17:59:24;;;;;;;64.45;28.42;;;-1.60;99.90;;;;;;7603190;19;21320;-72
2023/01/22 18:01:57;;;;;;;62.20;28.10;;;-1.60;99.90;;;;;;7587342;19;20908;-71
2023/01/22 18:04:33;;;;;;;67.47;30.15;;;-1.60;99.90;;;;;;7595935;19;20544;-72
2023/01/22 18:07:06;;;;;;;66.13;29.20;;;-1.70;99.90;;;;;;7592423;19;20086;-71
2023/01/22 18:09:38;;;;;;;67.45;28.45;;;-1.70;99.90;;;;;;7593914;19;21966;-71
2023/01/22 18:12:10;;;;;;;60.65;27.20;;;-1.70;99.90;;;;;;7599170;19;21399;-71
2023/01/22 18:14:43;;;;;;;61.25;26.70;;;-2.30;99.90;;;;;;7597740;19;21912;-73
2023/01/22 18:17:15;;;;;;;63.67;27.23;;;-1.80;99.90;;;;;;7590860;19;20864;-72
2023/01/22 18:19:48;;;;;;;62.95;27.08;;;-2.00;99.90;;;;;;7587915;19;20803;-72
2023/01/22 18:22:20;;;;;;;74.18;31.10;;;-2.00;99.90;;;;;;7568924;19;20011;-71
2023/01/22 18:24:53;;;;;;;68.90;28.43;;;-2.50;99.90;;;;;;7563537;19;22957;-73
2023/01/22 18:27:26;;;;;;;63.95;27.90;;;-2.30;99.90;;;;;;7564996;19;20014;-71
2023/01/22 18:29:59;;;;;;;63.17;25.33;;;-1.80;99.90;;;;;;7592713;19;21448;-71
2023/01/22 18:32:34;;;;;;;59.13;25.20;;;-2.00;99.90;;;;;;7581927;19;20006;-71
2023/01/22 18:35:08;;;;;;;62.70;24.38;;;-1.20;99.90;;;;;;7597185;19;20290;-72
2023/01/22 18:37:40;;;;;;;62.40;26.48;;;-2.10;99.90;;;;;;7586858;19;20647;-71
2023/01/22 18:42:12;;;;;;;59.55;25.35;;;-1.90;99.90;;;;;;7581762;19;23618;-73
2023/01/22 18:44:44;;;;;;;65.68;25.60;;;-2.60;99.90;;;;;;7601451;19;20015;-73
2023/01/22 18:47:16;;;;;;;58.90;24.75;;;-1.90;99.90;;;;;;7599190;19;20033;-71
2023/01/22 18:49:49;;;;;;;64.18;26.63;;;-2.40;99.90;;;;;;7586527;19;22909;-72
2023/01/22 18:52:22;;;;;;;60.35;24.20;;;-3.10;99.90;;;;;;7596991;19;20029;-72
2023/01/22 18:54:55;;;;;;;69.63;27.13;;;-2.40;99.90;;;;;;7595785;19;21055;-71
2023/01/22 18:57:33;;;;;;;68.40;28.67;;;-2.40;99.90;;;;;;7589682;19;20684;-73
2023/01/22 19:00:08;;;;;;;65.25;28.92;;;-2.60;99.90;;;;;;7582806;19;23114;-72
2023/01/22 19:02:40;;;;;;;71.25;30.15;;;-2.40;99.90;;;;;;7591329;19;20033;-70
2023/01/22 19:05:13;;;;;;;67.63;29.98;;;-2.50;99.90;;;;;;7592089;19;22314;-71
2023/01/22 19:07:46;;;;;;;68.13;29.75;;;-2.30;99.90;;;;;;7596177;19;20048;-71
2023/01/22 19:10:18;;;;;;;67.40;29.02;;;-3.50;99.90;;;;;;7601548;19;22273;-69
2023/01/22 19:12:51;;;;;;;72.87;31.03;;;-2.20;99.90;;;;;;7568651;19;20129;-72
2023/01/22 19:15:26;;;;;;;79.53;34.08;;;-2.40;99.90;;;;;;7576250;19;20579;-71
2023/01/22 19:17:59;;;;;;;73.13;32.45;;;-3.20;99.90;;;;;;7581891;19;20002;-70
2023/01/22 19:20:35;;;;;;;67.05;31.83;;;-2.80;99.90;;;;;;7582119;19;24379;-70
2023/01/22 19:23:08;;;;;;;73.47;31.85;;;-3.10;99.90;;;;;;7573991;19;20007;-70
2023/01/22 19:25:40;;;;;;;76.97;32.65;;;-2.70;99.90;;;;;;7595402;19;20013;-71
2023/01/22 19:28:12;;;;;;;71.57;31.63;;;-2.70;99.90;;;;;;7589707;19;20022;-70
2023/01/22 19:30:44;;;;;;;62.28;28.77;;;-3.10;99.90;;;;;;7589779;19;20090;-70
2023/01/22 19:33:17;;;;;;;65.47;30.15;;;-3.70;99.90;;;;;;7567862;19;20591;-71
2023/01/22 19:35:50;;;;;;;73.75;31.38;;;-3.20;99.90;;;;;;7584860;19;23575;-71
2023/01/22 19:38:22;;;;;;;74.88;32.03;;;-3.30;99.90;;;;;;7596345;19;23356;-71
2023/01/22 19:40:55;;;;;;;80.63;35.73;;;-3.10;99.90;;;;;;7557268;19;23878;-72
2023/01/22 19:43:27;;;;;;;77.50;34.35;;;-3.10;99.90;;;;;;7580105;19;20015;-71
2023/01/22 19:46:06;;;;;;;71.88;32.72;;;-3.20;99.90;;;;;;7580089;19;20467;-72
2023/01/22 19:48:39;;;;;;;65.70;30.45;;;-3.30;99.90;;;;;;7584349;19;20585;-70
2023/01/22 19:51:14;;;;;;;72.20;32.97;;;-3.30;99.90;;;;;;7583316;19;20014;-71
2023/01/22 19:53:47;;;;;;;66.70;31.35;;;-3.20;99.90;;;;;;7559636;19;20003;-72
2023/01/22 19:56:21;;;;;;;80.30;34.50;;;-3.20;99.90;;;;;;7537043;19;20018;-72
2023/01/22 19:58:57;;;;;;;;;;;-3.20;99.90;;;;;;7543925;19;23233;-73
2023/01/22 20:01:29;;;;;;;66.68;30.35;;;-3.40;99.90;;;;;;7562581;19;20394;-70
2023/01/22 20:04:02;;;;;;;70.37;32.97;;;-1.90;99.90;;;;;;7559884;19;20010;-72
2023/01/22 20:06:34;;;;;;;68.90;32.42;;;-3.10;99.90;;;;;;7529667;19;21651;-71
2023/01/22 20:09:07;;;;;;;61.38;30.27;;;-3.20;99.90;;;;;;7544191;19;20694;-72
2023/01/22 20:11:39;;;;;;;69.00;29.98;;;-3.70;99.90;;;;;;7577565;19;20018;-71
2023/01/22 20:14:11;;;;;;;65.70;30.42;;;-2.20;99.90;;;;;;7581516;19;20446;-72
2023/01/22 20:16:44;;;;;;;61.92;28.40;;;-3.00;99.90;;;;;;7569877;19;20010;-72
2023/01/22 20:19:16;;;;;;;57.23;26.97;;;-3.10;99.90;;;;;;7582650;19;20033;-71
2023/01/22 20:21:49;;;;;;;57.17;27.05;;;-3.10;99.90;;;;;;7570281;19;20275;-70
2023/01/22 20:24:21;;;;;;;67.82;29.58;;;-3.10;99.90;;;;;;7535833;19;20045;-73
2023/01/22 20:26:54;;;;;;;66.13;29.00;;;-3.10;99.90;;;;;;7576103;19;20014;-73
2023/01/22 20:29:27;;;;;;;67.75;31.42;;;-3.10;99.90;;;;;;7536245;19;20010;-73
2023/01/22 20:31:59;;;;;;;72.43;32.35;;;-3.10;99.90;;;;;;7553107;19;20407;-72
2023/01/22 20:34:32;;;;;;;70.50;31.90;;;-3.00;99.90;;;;;;7567441;19;20023;-72
2023/01/22 20:37:04;;;;;;;68.80;31.33;;;-3.10;99.90;;;;;;7562237;19;20022;-72
2023/01/22 20:39:36;;;;;;;62.58;29.92;;;-3.20;99.90;;;;;;7565590;19;20017;-72
